sensor_id;sensor_type;location;lat;lon;timestamp;temperature;humidity
73547;SHT30;61807;48.384;-4.386;2023-02-04T00:00:46;10.91;65.15
73547;SHT30;61807;48.384;-4.386;2023-02-04T00:03:15;10.84;64.92
73547;SHT30;61807;48.384;-4.386;2023-02-04T00:05:41;10.84;64.98
73547;SHT30;61807;48.384;-4.386;2023-02-04T00:08:07;10.85;64.89
73547;SHT30;61807;48.384;-4.386;2023-02-04T00:10:33;10.85;64.93
73547;SHT30;61807;48.384;-4.386;2023-02-04T00:12:59;10.84;65.01
73547;SHT30;61807;48.384;-4.386;2023-02-04T00:15:24;10.82;64.97
73547;SHT30;61807;48.384;-4.386;2023-02-04T00:17:50;10.84;65.36
73547;SHT30;61807;48.384;-4.386;2023-02-04T00:20:15;10.85;65.37
73547;SHT30;61807;48.384;-4.386;2023-02-04T00:22:41;10.86;65.08
73547;SHT30;61807;48.384;-4.386;2023-02-04T00:25:06;10.91;65.19
73547;SHT30;61807;48.384;-4.386;2023-02-04T00:27:32;10.94;65.29
73547;SHT30;61807;48.384;-4.386;2023-02-04T00:29:57;10.98;65.13
73547;SHT30;61807;48.384;-4.386;2023-02-04T00:32:23;10.99;64.94
73547;SHT30;61807;48.384;-4.386;2023-02-04T00:34:49;10.98;65.17
73547;SHT30;61807;48.384;-4.386;2023-02-04T00:37:14;10.96;65.28
73547;SHT30;61807;48.384;-4.386;2023-02-04T00:39:40;11.04;65.50
73547;SHT30;61807;48.384;-4.386;2023-02-04T00:42:05;11.13;65.43
73547;SHT30;61807;48.384;-4.386;2023-02-04T00:44:31;11.22;65.42
73547;SHT30;61807;48.384;-4.386;2023-02-04T00:46:56;11.27;65.16
73547;SHT30;61807;48.384;-4.386;2023-02-04T00:49:22;11.34;65.21
73547;SHT30;61807;48.384;-4.386;2023-02-04T00:51:47;11.42;65.12
73547;SHT30;61807;48.384;-4.386;2023-02-04T00:54:13;11.49;64.92
73547;SHT30;61807;48.384;-4.386;2023-02-04T00:56:40;11.53;64.82
73547;SHT30;61807;48.384;-4.386;2023-02-04T00:59:06;11.62;64.76
73547;SHT30;61807;48.384;-4.386;2023-02-04T01:01:32;11.66;64.59
73547;SHT30;61807;48.384;-4.386;2023-02-04T01:03:58;11.62;64.05
73547;SHT30;61807;48.384;-4.386;2023-02-04T01:06:23;11.60;64.22
73547;SHT30;61807;48.384;-4.386;2023-02-04T01:08:49;11.57;64.28
73547;SHT30;61807;48.384;-4.386;2023-02-04T01:11:15;11.57;64.19
73547;SHT30;61807;48.384;-4.386;2023-02-04T01:13:40;11.63;64.21
73547;SHT30;61807;48.384;-4.386;2023-02-04T01:16:06;11.74;63.99
73547;SHT30;61807;48.384;-4.386;2023-02-04T01:18:31;11.85;64.06
73547;SHT30;61807;48.384;-4.386;2023-02-04T01:20:56;11.94;63.96
73547;SHT30;61807;48.384;-4.386;2023-02-04T01:23:22;11.90;63.52
73547;SHT30;61807;48.384;-4.386;2023-02-04T01:25:47;11.88;64.13
73547;SHT30;61807;48.384;-4.386;2023-02-04T01:28:12;11.95;64.10
73547;SHT30;61807;48.384;-4.386;2023-02-04T01:30:38;11.94;63.54
73547;SHT30;61807;48.384;-4.386;2023-02-04T01:33:03;11.99;64.10
73547;SHT30;61807;48.384;-4.386;2023-02-04T01:35:29;12.05;64.03
73547;SHT30;61807;48.384;-4.386;2023-02-04T01:37:54;12.14;63.52
73547;SHT30;61807;48.384;-4.386;2023-02-04T01:40:19;12.12;63.41
73547;SHT30;61807;48.384;-4.386;2023-02-04T01:42:45;12.17;63.43
73547;SHT30;61807;48.384;-4.386;2023-02-04T01:45:11;12.12;63.08
73547;SHT30;61807;48.384;-4.386;2023-02-04T01:47:37;12.12;62.70
73547;SHT30;61807;48.384;-4.386;2023-02-04T01:50:03;12.11;62.89
73547;SHT30;61807;48.384;-4.386;2023-02-04T01:52:34;12.14;62.91
73547;SHT30;61807;48.384;-4.386;2023-02-04T01:55:00;12.20;62.96
73547;SHT30;61807;48.384;-4.386;2023-02-04T01:57:26;12.24;62.80
73547;SHT30;61807;48.384;-4.386;2023-02-04T01:59:54;12.24;62.81
73547;SHT30;61807;48.384;-4.386;2023-02-04T02:02:38;12.24;63.19
73547;SHT30;61807;48.384;-4.386;2023-02-04T02:05:05;12.26;63.18
73547;SHT30;61807;48.384;-4.386;2023-02-04T02:07:31;12.31;63.04
73547;SHT30;61807;48.384;-4.386;2023-02-04T02:09:57;12.36;62.63
73547;SHT30;61807;48.384;-4.386;2023-02-04T02:12:22;12.45;62.41
73547;SHT30;61807;48.384;-4.386;2023-02-04T02:14:48;12.53;62.28
73547;SHT30;61807;48.384;-4.386;2023-02-04T02:17:13;12.59;62.19
73547;SHT30;61807;48.384;-4.386;2023-02-04T02:19:40;12.66;62.09
73547;SHT30;61807;48.384;-4.386;2023-02-04T02:22:14;12.72;61.94
73547;SHT30;61807;48.384;-4.386;2023-02-04T02:24:41;12.69;61.79
73547;SHT30;61807;48.384;-4.386;2023-02-04T02:27:08;12.73;61.88
73547;SHT30;61807;48.384;-4.386;2023-02-04T02:29:36;12.75;61.72
73547;SHT30;61807;48.384;-4.386;2023-02-04T02:32:04;12.73;61.34
73547;SHT30;61807;48.384;-4.386;2023-02-04T02:34:29;12.66;61.25
73547;SHT30;61807;48.384;-4.386;2023-02-04T02:36:56;12.60;61.22
73547;SHT30;61807;48.384;-4.386;2023-02-04T02:39:22;12.59;61.58
73547;SHT30;61807;48.384;-4.386;2023-02-04T02:41:47;12.59;61.50
73547;SHT30;61807;48.384;-4.386;2023-02-04T02:44:15;12.56;61.66
73547;SHT30;61807;48.384;-4.386;2023-02-04T02:46:41;12.56;61.95
73547;SHT30;61807;48.384;-4.386;2023-02-04T02:49:13;12.57;62.07
73547;SHT30;61807;48.384;-4.386;2023-02-04T02:51:40;12.59;61.97
73547;SHT30;61807;48.384;-4.386;2023-02-04T02:56:49;12.49;61.69
73547;SHT30;61807;48.384;-4.386;2023-02-04T02:59:16;12.45;62.01
73547;SHT30;61807;48.384;-4.386;2023-02-04T03:01:42;12.42;61.98
73547;SHT30;61807;48.384;-4.386;2023-02-04T03:04:09;12.36;61.97
73547;SHT30;61807;48.384;-4.386;2023-02-04T03:06:35;12.31;61.93
73547;SHT30;61807;48.384;-4.386;2023-02-04T03:09:00;12.28;61.98
73547;SHT30;61807;48.384;-4.386;2023-02-04T03:11:26;12.26;62.03
73547;SHT30;61807;48.384;-4.386;2023-02-04T03:13:55;12.22;62.28
73547;SHT30;61807;48.384;-4.386;2023-02-04T03:16:21;12.20;62.30
73547;SHT30;61807;48.384;-4.386;2023-02-04T03:18:47;12.12;62.40
73547;SHT30;61807;48.384;-4.386;2023-02-04T03:21:13;12.11;62.33
73547;SHT30;61807;48.384;-4.386;2023-02-04T03:23:38;12.02;62.49
73547;SHT30;61807;48.384;-4.386;2023-02-04T03:26:04;12.02;62.82
73547;SHT30;61807;48.384;-4.386;2023-02-04T03:28:30;11.98;62.67
73547;SHT30;61807;48.384;-4.386;2023-02-04T03:30:56;11.93;62.91
73547;SHT30;61807;48.384;-4.386;2023-02-04T03:33:27;11.90;63.01
73547;SHT30;61807;48.384;-4.386;2023-02-04T03:35:56;11.87;62.96
73547;SHT30;61807;48.384;-4.386;2023-02-04T03:38:21;11.83;63.02
73547;SHT30;61807;48.384;-4.386;2023-02-04T03:40:47;11.80;63.26
73547;SHT30;61807;48.384;-4.386;2023-02-04T03:43:12;11.81;63.19
73547;SHT30;61807;48.384;-4.386;2023-02-04T03:45:38;11.77;63.13
73547;SHT30;61807;48.384;-4.386;2023-02-04T03:48:03;11.71;63.03
73547;SHT30;61807;48.384;-4.386;2023-02-04T03:50:28;11.69;63.03
73547;SHT30;61807;48.384;-4.386;2023-02-04T03:52:54;11.64;63.27
73547;SHT30;61807;48.384;-4.386;2023-02-04T03:55:19;11.63;63.59
73547;SHT30;61807;48.384;-4.386;2023-02-04T03:57:45;11.59;63.58
73547;SHT30;61807;48.384;-4.386;2023-02-04T04:00:11;11.54;63.45
73547;SHT30;61807;48.384;-4.386;2023-02-04T04:02:38;11.50;63.26
73547;SHT30;61807;48.384;-4.386;2023-02-04T04:05:04;11.47;63.37
73547;SHT30;61807;48.384;-4.386;2023-02-04T04:07:29;11.42;63.15
73547;SHT30;61807;48.384;-4.386;2023-02-04T04:09:55;11.37;63.27
73547;SHT30;61807;48.384;-4.386;2023-02-04T04:12:20;11.32;63.36
73547;SHT30;61807;48.384;-4.386;2023-02-04T04:14:45;11.32;63.49
73547;SHT30;61807;48.384;-4.386;2023-02-04T04:17:11;11.29;63.68
73547;SHT30;61807;48.384;-4.386;2023-02-04T04:19:36;11.23;63.33
73547;SHT30;61807;48.384;-4.386;2023-02-04T04:22:01;11.20;63.40
73547;SHT30;61807;48.384;-4.386;2023-02-04T04:24:27;11.20;63.48
73547;SHT30;61807;48.384;-4.386;2023-02-04T04:26:52;11.19;63.38
73547;SHT30;61807;48.384;-4.386;2023-02-04T04:29:18;11.11;63.36
73547;SHT30;61807;48.384;-4.386;2023-02-04T04:31:43;11.09;63.42
73547;SHT30;61807;48.384;-4.386;2023-02-04T04:34:09;11.08;63.57
73547;SHT30;61807;48.384;-4.386;2023-02-04T04:36:35;11.05;63.56
73547;SHT30;61807;48.384;-4.386;2023-02-04T04:39:00;11.04;63.77
73547;SHT30;61807;48.384;-4.386;2023-02-04T04:41:25;11.06;63.71
73547;SHT30;61807;48.384;-4.386;2023-02-04T04:43:51;11.02;63.65
73547;SHT30;61807;48.384;-4.386;2023-02-04T04:46:16;11.04;63.51
73547;SHT30;61807;48.384;-4.386;2023-02-04T04:48:42;10.99;63.64
73547;SHT30;61807;48.384;-4.386;2023-02-04T04:51:07;10.95;63.71
73547;SHT30;61807;48.384;-4.386;2023-02-04T04:53:32;10.94;63.93
73547;SHT30;61807;48.384;-4.386;2023-02-04T04:55:58;10.95;63.77
73547;SHT30;61807;48.384;-4.386;2023-02-04T04:58:23;10.94;63.83
73547;SHT30;61807;48.384;-4.386;2023-02-04T05:00:48;10.96;63.49
73547;SHT30;61807;48.384;-4.386;2023-02-04T05:03:14;11.01;63.30
73547;SHT30;61807;48.384;-4.386;2023-02-04T05:05:39;10.99;62.93
73547;SHT30;61807;48.384;-4.386;2023-02-04T05:08:08;10.98;62.78
73547;SHT30;61807;48.384;-4.386;2023-02-04T05:10:38;10.96;62.62
73547;SHT30;61807;48.384;-4.386;2023-02-04T05:13:03;10.95;62.45
73547;SHT30;61807;48.384;-4.386;2023-02-04T05:15:29;10.91;62.59
73547;SHT30;61807;48.384;-4.386;2023-02-04T05:17:54;10.92;62.87
73547;SHT30;61807;48.384;-4.386;2023-02-04T05:20:19;10.95;62.76
73547;SHT30;61807;48.384;-4.386;2023-02-04T05:22:45;10.94;62.64
73547;SHT30;61807;48.384;-4.386;2023-02-04T05:25:10;10.96;62.60
73547;SHT30;61807;48.384;-4.386;2023-02-04T05:27:36;10.96;62.79
73547;SHT30;61807;48.384;-4.386;2023-02-04T05:30:01;10.95;62.72
73547;SHT30;61807;48.384;-4.386;2023-02-04T05:32:26;10.95;62.78
73547;SHT30;61807;48.384;-4.386;2023-02-04T05:34:52;10.96;62.76
73547;SHT30;61807;48.384;-4.386;2023-02-04T05:37:17;10.98;62.74
73547;SHT30;61807;48.384;-4.386;2023-02-04T05:39:45;10.96;62.85
73547;SHT30;61807;48.384;-4.386;2023-02-04T05:42:11;10.95;62.96
73547;SHT30;61807;48.384;-4.386;2023-02-04T05:44:37;10.96;62.81
73547;SHT30;61807;48.384;-4.386;2023-02-04T05:47:02;10.95;62.98
73547;SHT30;61807;48.384;-4.386;2023-02-04T05:49:27;10.94;63.00
73547;SHT30;61807;48.384;-4.386;2023-02-04T05:51:53;10.92;62.91
73547;SHT30;61807;48.384;-4.386;2023-02-04T05:54:18;10.92;63.26
73547;SHT30;61807;48.384;-4.386;2023-02-04T05:56:46;10.94;63.32
73547;SHT30;61807;48.384;-4.386;2023-02-04T05:59:11;10.92;63.38
73547;SHT30;61807;48.384;-4.386;2023-02-04T06:01:37;10.91;63.20
73547;SHT30;61807;48.384;-4.386;2023-02-04T06:04:02;10.89;63.30
73547;SHT30;61807;48.384;-4.386;2023-02-04T06:06:28;10.86;63.82
73547;SHT30;61807;48.384;-4.386;2023-02-04T06:08:53;10.85;63.77
73547;SHT30;61807;48.384;-4.386;2023-02-04T06:11:18;10.81;63.95
73547;SHT30;61807;48.384;-4.386;2023-02-04T06:13:45;10.78;64.17
73547;SHT30;61807;48.384;-4.386;2023-02-04T06:16:10;10.75;64.25
73547;SHT30;61807;48.384;-4.386;2023-02-04T06:18:36;10.75;64.34
73547;SHT30;61807;48.384;-4.386;2023-02-04T06:21:01;10.75;64.41
73547;SHT30;61807;48.384;-4.386;2023-02-04T06:23:29;10.71;64.12
73547;SHT30;61807;48.384;-4.386;2023-02-04T06:25:55;10.74;64.42
73547;SHT30;61807;48.384;-4.386;2023-02-04T06:28:20;10.71;64.51
73547;SHT30;61807;48.384;-4.386;2023-02-04T06:30:45;10.68;64.45
73547;SHT30;61807;48.384;-4.386;2023-02-04T06:33:11;10.67;64.24
73547;SHT30;61807;48.384;-4.386;2023-02-04T06:35:36;10.64;64.27
73547;SHT30;61807;48.384;-4.386;2023-02-04T06:38:02;10.63;64.35
73547;SHT30;61807;48.384;-4.386;2023-02-04T06:40:27;10.64;64.25
73547;SHT30;61807;48.384;-4.386;2023-02-04T06:42:53;10.65;64.39
73547;SHT30;61807;48.384;-4.386;2023-02-04T06:45:18;10.63;64.23
73547;SHT30;61807;48.384;-4.386;2023-02-04T06:47:43;10.60;63.99
73547;SHT30;61807;48.384;-4.386;2023-02-04T06:50:09;10.57;64.03
73547;SHT30;61807;48.384;-4.386;2023-02-04T06:52:35;10.54;64.09
73547;SHT30;61807;48.384;-4.386;2023-02-04T06:55:01;10.58;63.96
73547;SHT30;61807;48.384;-4.386;2023-02-04T06:57:26;10.63;63.92
73547;SHT30;61807;48.384;-4.386;2023-02-04T06:59:52;10.71;63.83
73547;SHT30;61807;48.384;-4.386;2023-02-04T07:02:17;10.75;63.75
73547;SHT30;61807;48.384;-4.386;2023-02-04T07:04:42;10.81;63.52
73547;SHT30;61807;48.384;-4.386;2023-02-04T07:07:09;10.86;63.53
73547;SHT30;61807;48.384;-4.386;2023-02-04T07:09:34;10.92;63.33
73547;SHT30;61807;48.384;-4.386;2023-02-04T07:12:00;10.98;63.53
73547;SHT30;61807;48.384;-4.386;2023-02-04T07:14:25;11.02;63.51
73547;SHT30;61807;48.384;-4.386;2023-02-04T07:16:50;11.08;63.23
73547;SHT30;61807;48.384;-4.386;2023-02-04T07:19:16;11.16;63.29
73547;SHT30;61807;48.384;-4.386;2023-02-04T07:21:41;11.25;63.29
73547;SHT30;61807;48.384;-4.386;2023-02-04T07:24:07;11.30;62.68
73547;SHT30;61807;48.384;-4.386;2023-02-04T07:26:32;11.29;62.74
73547;SHT30;61807;48.384;-4.386;2023-02-04T07:28:58;11.34;62.86
73547;SHT30;61807;48.384;-4.386;2023-02-04T07:31:23;11.42;62.68
73547;SHT30;61807;48.384;-4.386;2023-02-04T07:33:49;11.47;62.90
73547;SHT30;61807;48.384;-4.386;2023-02-04T07:36:14;11.54;62.70
73547;SHT30;61807;48.384;-4.386;2023-02-04T07:38:40;11.59;62.54
73547;SHT30;61807;48.384;-4.386;2023-02-04T07:41:05;11.64;62.46
73547;SHT30;61807;48.384;-4.386;2023-02-04T07:43:30;11.74;62.77
73547;SHT30;61807;48.384;-4.386;2023-02-04T07:45:56;11.80;62.55
73547;SHT30;61807;48.384;-4.386;2023-02-04T07:48:21;11.87;62.28
73547;SHT30;61807;48.384;-4.386;2023-02-04T07:50:47;11.87;61.98
73547;SHT30;61807;48.384;-4.386;2023-02-04T07:53:12;11.84;61.29
73547;SHT30;61807;48.384;-4.386;2023-02-04T07:55:38;11.71;61.27
73547;SHT30;61807;48.384;-4.386;2023-02-04T07:58:03;11.66;61.59
73547;SHT30;61807;48.384;-4.386;2023-02-04T08:00:29;11.70;61.58
73547;SHT30;61807;48.384;-4.386;2023-02-04T08:02:55;11.75;61.36
73547;SHT30;61807;48.384;-4.386;2023-02-04T08:05:20;11.84;61.25
73547;SHT30;61807;48.384;-4.386;2023-02-04T08:07:45;11.93;61.16
73547;SHT30;61807;48.384;-4.386;2023-02-04T08:10:11;11.97;61.26
73547;SHT30;61807;48.384;-4.386;2023-02-04T08:12:37;12.04;60.82
73547;SHT30;61807;48.384;-4.386;2023-02-04T08:15:03;12.01;60.62
73547;SHT30;61807;48.384;-4.386;2023-02-04T08:17:29;11.99;60.81
73547;SHT30;61807;48.384;-4.386;2023-02-04T08:19:54;11.98;60.57
73547;SHT30;61807;48.384;-4.386;2023-02-04T08:22:20;12.01;60.93
73547;SHT30;61807;48.384;-4.386;2023-02-04T08:24:46;12.06;61.13
73547;SHT30;61807;48.384;-4.386;2023-02-04T08:27:11;12.17;60.92
73547;SHT30;61807;48.384;-4.386;2023-02-04T08:29:37;12.21;60.83
73547;SHT30;61807;48.384;-4.386;2023-02-04T08:32:02;12.28;60.82
73547;SHT30;61807;48.384;-4.386;2023-02-04T08:34:28;12.36;60.80
73547;SHT30;61807;48.384;-4.386;2023-02-04T08:36:53;12.38;60.60
73547;SHT30;61807;48.384;-4.386;2023-02-04T08:39:19;12.41;60.67
73547;SHT30;61807;48.384;-4.386;2023-02-04T08:41:44;12.45;60.53
73547;SHT30;61807;48.384;-4.386;2023-02-04T08:44:10;12.46;60.50
73547;SHT30;61807;48.384;-4.386;2023-02-04T08:46:35;12.45;60.64
73547;SHT30;61807;48.384;-4.386;2023-02-04T08:49:00;12.43;60.51
73547;SHT30;61807;48.384;-4.386;2023-02-04T08:51:26;12.43;60.46
73547;SHT30;61807;48.384;-4.386;2023-02-04T08:53:51;12.32;59.67
73547;SHT30;61807;48.384;-4.386;2023-02-04T08:56:17;12.22;60.16
73547;SHT30;61807;48.384;-4.386;2023-02-04T08:58:45;12.20;60.66
73547;SHT30;61807;48.384;-4.386;2023-02-04T09:01:10;12.22;60.38
73547;SHT30;61807;48.384;-4.386;2023-02-04T09:03:38;12.21;60.46
73547;SHT30;61807;48.384;-4.386;2023-02-04T09:06:05;12.18;60.00
73547;SHT30;61807;48.384;-4.386;2023-02-04T09:08:30;12.12;59.52
73547;SHT30;61807;48.384;-4.386;2023-02-04T09:10:56;12.05;59.64
73547;SHT30;61807;48.384;-4.386;2023-02-04T09:13:21;12.06;60.12
73547;SHT30;61807;48.384;-4.386;2023-02-04T09:15:47;12.05;60.20
73547;SHT30;61807;48.384;-4.386;2023-02-04T09:18:12;12.02;60.24
73547;SHT30;61807;48.384;-4.386;2023-02-04T09:20:43;12.01;60.18
73547;SHT30;61807;48.384;-4.386;2023-02-04T09:23:09;12.02;60.51
73547;SHT30;61807;48.384;-4.386;2023-02-04T09:25:37;11.99;60.28
73547;SHT30;61807;48.384;-4.386;2023-02-04T09:28:03;12.01;60.12
73547;SHT30;61807;48.384;-4.386;2023-02-04T09:30:29;11.97;60.13
73547;SHT30;61807;48.384;-4.386;2023-02-04T09:32:54;11.97;60.35
73547;SHT30;61807;48.384;-4.386;2023-02-04T09:35:19;11.91;60.11
73547;SHT30;61807;48.384;-4.386;2023-02-04T09:37:45;11.87;60.37
73547;SHT30;61807;48.384;-4.386;2023-02-04T09:40:14;11.84;60.76
73547;SHT30;61807;48.384;-4.386;2023-02-04T09:42:41;11.98;63.02
73547;SHT30;61807;48.384;-4.386;2023-02-04T09:45:12;12.69;65.64
73547;SHT30;61807;48.384;-4.386;2023-02-04T09:47:40;13.42;65.97
73547;SHT30;61807;48.384;-4.386;2023-02-04T09:50:12;14.10;65.76
73547;SHT30;61807;48.384;-4.386;2023-02-04T09:52:38;14.64;65.21
73547;SHT30;61807;48.384;-4.386;2023-02-04T09:55:18;14.91;63.31
73547;SHT30;61807;48.384;-4.386;2023-02-04T09:57:44;15.13;64.11
73547;SHT30;61807;48.384;-4.386;2023-02-04T10:00:17;15.49;63.94
73547;SHT30;61807;48.384;-4.386;2023-02-04T10:02:43;15.80;63.39
73547;SHT30;61807;48.384;-4.386;2023-02-04T10:05:13;16.06;62.72
73547;SHT30;61807;48.384;-4.386;2023-02-04T10:07:39;16.25;61.62
73547;SHT30;61807;48.384;-4.386;2023-02-04T10:10:05;16.38;60.72
73547;SHT30;61807;48.384;-4.386;2023-02-04T10:12:30;16.46;59.85
73547;SHT30;61807;48.384;-4.386;2023-02-04T10:14:57;16.59;59.21
73547;SHT30;61807;48.384;-4.386;2023-02-04T10:17:24;16.57;57.35
73547;SHT30;61807;48.384;-4.386;2023-02-04T10:19:49;16.28;56.89
73547;SHT30;61807;48.384;-4.386;2023-02-04T10:22:20;16.21;58.04
73547;SHT30;61807;48.384;-4.386;2023-02-04T10:24:46;16.32;58.19
73547;SHT30;61807;48.384;-4.386;2023-02-04T10:27:12;16.45;58.02
73547;SHT30;61807;48.384;-4.386;2023-02-04T10:29:42;16.57;57.55
73547;SHT30;61807;48.384;-4.386;2023-02-04T10:32:29;16.69;57.45
73547;SHT30;61807;48.384;-4.386;2023-02-04T10:34:57;16.77;57.33
73547;SHT30;61807;48.384;-4.386;2023-02-04T10:37:23;16.84;57.13
73547;SHT30;61807;48.384;-4.386;2023-02-04T10:39:49;16.94;56.85
73547;SHT30;61807;48.384;-4.386;2023-02-04T10:42:25;17.00;56.50
73547;SHT30;61807;48.384;-4.386;2023-02-04T10:44:51;17.04;56.45
73547;SHT30;61807;48.384;-4.386;2023-02-04T10:47:23;17.04;56.26
73547;SHT30;61807;48.384;-4.386;2023-02-04T10:49:56;16.80;54.18
73547;SHT30;61807;48.384;-4.386;2023-02-04T10:52:29;16.57;55.50
73547;SHT30;61807;48.384;-4.386;2023-02-04T10:54:55;16.55;55.73
73547;SHT30;61807;48.384;-4.386;2023-02-04T10:57:22;16.59;55.48
73547;SHT30;61807;48.384;-4.386;2023-02-04T10:59:54;16.67;55.23
73547;SHT30;61807;48.384;-4.386;2023-02-04T11:04:47;16.79;54.78
73547;SHT30;61807;48.384;-4.386;2023-02-04T11:07:12;16.83;54.61
73547;SHT30;61807;48.384;-4.386;2023-02-04T11:09:42;16.84;54.53
73547;SHT30;61807;48.384;-4.386;2023-02-04T11:12:37;16.88;54.37
73547;SHT30;61807;48.384;-4.386;2023-02-04T11:15:03;16.88;54.36
73547;SHT30;61807;48.384;-4.386;2023-02-04T11:17:31;16.84;52.95
73547;SHT30;61807;48.384;-4.386;2023-02-04T11:19:58;16.67;53.72
73547;SHT30;61807;48.384;-4.386;2023-02-04T11:22:43;16.53;53.59
73547;SHT30;61807;48.384;-4.386;2023-02-04T11:27:57;16.11;53.78
73547;SHT30;61807;48.384;-4.386;2023-02-04T11:30:23;16.01;53.84
73547;SHT30;61807;48.384;-4.386;2023-02-04T11:33:00;16.02;53.69
73547;SHT30;61807;48.384;-4.386;2023-02-04T11:35:27;16.00;53.05
73547;SHT30;61807;48.384;-4.386;2023-02-04T11:37:54;15.83;53.21
73547;SHT30;61807;48.384;-4.386;2023-02-04T11:40:28;15.77;53.23
73547;SHT30;61807;48.384;-4.386;2023-02-04T11:43:10;15.60;52.40
73547;SHT30;61807;48.384;-4.386;2023-02-04T11:45:37;15.43;53.16
73547;SHT30;61807;48.384;-4.386;2023-02-04T11:48:13;15.50;53.21
73547;SHT30;61807;48.384;-4.386;2023-02-04T11:50:39;15.30;51.68
73547;SHT30;61807;48.384;-4.386;2023-02-04T11:53:09;14.79;50.78
73547;SHT30;61807;48.384;-4.386;2023-02-04T11:55:42;14.23;49.72
73547;SHT30;61807;48.384;-4.386;2023-02-04T11:58:13;13.76;52.42
73547;SHT30;61807;48.384;-4.386;2023-02-04T12:00:39;13.63;53.78
73547;SHT30;61807;48.384;-4.386;2023-02-04T12:03:28;13.51;52.44
73547;SHT30;61807;48.384;-4.386;2023-02-04T12:05:55;13.15;52.41
73547;SHT30;61807;48.384;-4.386;2023-02-04T12:10:48;13.01;55.54
73547;SHT30;61807;48.384;-4.386;2023-02-04T12:13:18;13.25;54.76
73547;SHT30;61807;48.384;-4.386;2023-02-04T12:15:53;13.12;54.00
73547;SHT30;61807;48.384;-4.386;2023-02-04T12:18:19;12.97;53.67
73547;SHT30;61807;48.384;-4.386;2023-02-04T12:20:44;12.80;54.02
73547;SHT30;61807;48.384;-4.386;2023-02-04T12:23:10;12.72;54.32
73547;SHT30;61807;48.384;-4.386;2023-02-04T12:25:35;12.70;54.48
73547;SHT30;61807;48.384;-4.386;2023-02-04T12:28:00;12.69;54.40
73547;SHT30;61807;48.384;-4.386;2023-02-04T12:30:26;12.62;54.72
73547;SHT30;61807;48.384;-4.386;2023-02-04T12:32:52;12.60;54.50
73547;SHT30;61807;48.384;-4.386;2023-02-04T12:35:18;12.59;54.54
73547;SHT30;61807;48.384;-4.386;2023-02-04T12:37:44;12.60;54.46
73547;SHT30;61807;48.384;-4.386;2023-02-04T12:40:16;12.57;54.85
73547;SHT30;61807;48.384;-4.386;2023-02-04T12:42:42;12.59;54.63
73547;SHT30;61807;48.384;-4.386;2023-02-04T12:45:09;12.53;54.77
73547;SHT30;61807;48.384;-4.386;2023-02-04T12:47:35;12.55;54.89
73547;SHT30;61807;48.384;-4.386;2023-02-04T12:50:00;12.59;54.65
73547;SHT30;61807;48.384;-4.386;2023-02-04T12:52:26;12.55;54.66
73547;SHT30;61807;48.384;-4.386;2023-02-04T12:54:51;12.52;54.79
73547;SHT30;61807;48.384;-4.386;2023-02-04T12:57:17;12.52;54.76
73547;SHT30;61807;48.384;-4.386;2023-02-04T12:59:45;12.45;54.52
73547;SHT30;61807;48.384;-4.386;2023-02-04T13:02:10;12.35;54.85
73547;SHT30;61807;48.384;-4.386;2023-02-04T13:04:36;12.33;55.09
73547;SHT30;61807;48.384;-4.386;2023-02-04T13:07:01;12.28;54.97
73547;SHT30;61807;48.384;-4.386;2023-02-04T13:09:27;12.31;55.17
73547;SHT30;61807;48.384;-4.386;2023-02-04T13:11:52;12.28;55.18
73547;SHT30;61807;48.384;-4.386;2023-02-04T13:14:18;12.26;55.36
73547;SHT30;61807;48.384;-4.386;2023-02-04T13:16:43;12.24;55.39
73547;SHT30;61807;48.384;-4.386;2023-02-04T13:19:09;12.22;55.40
73547;SHT30;61807;48.384;-4.386;2023-02-04T13:21:34;12.21;55.58
73547;SHT30;61807;48.384;-4.386;2023-02-04T13:24:00;12.20;55.08
73547;SHT30;61807;48.384;-4.386;2023-02-04T13:26:25;12.10;55.28
73547;SHT30;61807;48.384;-4.386;2023-02-04T13:28:50;12.02;55.32
73547;SHT30;61807;48.384;-4.386;2023-02-04T13:31:16;11.97;55.60
73547;SHT30;61807;48.384;-4.386;2023-02-04T13:33:41;11.94;55.56
73547;SHT30;61807;48.384;-4.386;2023-02-04T13:36:07;11.88;55.55
73547;SHT30;61807;48.384;-4.386;2023-02-04T13:38:32;11.84;55.99
73547;SHT30;61807;48.384;-4.386;2023-02-04T13:40:58;11.85;55.74
73547;SHT30;61807;48.384;-4.386;2023-02-04T13:43:23;11.84;56.06
73547;SHT30;61807;48.384;-4.386;2023-02-04T13:45:48;11.87;56.22
73547;SHT30;61807;48.384;-4.386;2023-02-04T13:48:14;11.97;55.98
73547;SHT30;61807;48.384;-4.386;2023-02-04T13:50:40;11.97;55.95
73547;SHT30;61807;48.384;-4.386;2023-02-04T13:53:06;11.97;55.95
73547;SHT30;61807;48.384;-4.386;2023-02-04T13:55:32;11.93;56.04
73547;SHT30;61807;48.384;-4.386;2023-02-04T13:57:58;11.94;55.93
73547;SHT30;61807;48.384;-4.386;2023-02-04T14:00:23;11.93;56.11
73547;SHT30;61807;48.384;-4.386;2023-02-04T14:02:48;11.88;55.83
73547;SHT30;61807;48.384;-4.386;2023-02-04T14:05:14;11.85;56.40
73547;SHT30;61807;48.384;-4.386;2023-02-04T14:07:40;11.85;56.10
73547;SHT30;61807;48.384;-4.386;2023-02-04T14:10:05;11.85;56.17
73547;SHT30;61807;48.384;-4.386;2023-02-04T14:12:31;11.78;56.06
73547;SHT30;61807;48.384;-4.386;2023-02-04T14:14:56;11.74;56.16
73547;SHT30;61807;48.384;-4.386;2023-02-04T14:17:22;11.73;56.42
73547;SHT30;61807;48.384;-4.386;2023-02-04T14:19:47;11.83;56.45
73547;SHT30;61807;48.384;-4.386;2023-02-04T14:22:13;11.81;56.35
73547;SHT30;61807;48.384;-4.386;2023-02-04T14:24:38;11.90;56.53
73547;SHT30;61807;48.384;-4.386;2023-02-04T14:27:09;11.94;56.54
73547;SHT30;61807;48.384;-4.386;2023-02-04T14:29:35;11.94;56.34
73547;SHT30;61807;48.384;-4.386;2023-02-04T14:32:00;11.97;56.77
73547;SHT30;61807;48.384;-4.386;2023-02-04T14:34:26;11.94;56.36
73547;SHT30;61807;48.384;-4.386;2023-02-04T14:36:51;11.97;56.40
73547;SHT30;61807;48.384;-4.386;2023-02-04T14:39:17;11.94;56.20
73547;SHT30;61807;48.384;-4.386;2023-02-04T14:41:42;11.87;56.24
73547;SHT30;61807;48.384;-4.386;2023-02-04T14:44:08;11.81;56.48
73547;SHT30;61807;48.384;-4.386;2023-02-04T14:46:33;11.78;56.87
73547;SHT30;61807;48.384;-4.386;2023-02-04T14:48:59;11.87;56.46
73547;SHT30;61807;48.384;-4.386;2023-02-04T14:51:24;11.87;56.61
73547;SHT30;61807;48.384;-4.386;2023-02-04T14:53:49;11.85;56.43
73547;SHT30;61807;48.384;-4.386;2023-02-04T14:56:15;11.83;56.71
73547;SHT30;61807;48.384;-4.386;2023-02-04T14:58:41;11.87;56.76
73547;SHT30;61807;48.384;-4.386;2023-02-04T15:01:06;11.88;56.75
73547;SHT30;61807;48.384;-4.386;2023-02-04T15:03:31;11.90;56.89
73547;SHT30;61807;48.384;-4.386;2023-02-04T15:05:57;11.98;57.21
73547;SHT30;61807;48.384;-4.386;2023-02-04T15:08:22;11.98;57.21
73547;SHT30;61807;48.384;-4.386;2023-02-04T15:10:48;12.01;57.34
73547;SHT30;61807;48.384;-4.386;2023-02-04T15:13:13;12.04;56.93
73547;SHT30;61807;48.384;-4.386;2023-02-04T15:15:38;12.05;56.95
73547;SHT30;61807;48.384;-4.386;2023-02-04T15:18:04;12.02;57.25
73547;SHT30;61807;48.384;-4.386;2023-02-04T15:20:29;11.99;57.18